Time;durP1;ratioP1;P1;durP2;ratioP2;P2;SDS_P1;SDS_P2;PMS_P1;PMS_P2;Temp;Humidity;BMP_temperature;BMP_pressure;BME280_temperature;BME280_humidity;BME280_pressure;Samples;Min_cycle;Max_cycle;Signal;HPM_P1;HPM_P2
2022/09/01 00:01:51;;;;;;;4.85;2.05;;;;;;;15.58;81.13;102163.91;5031728;28;20022;-71
2022/09/01 00:04:20;;;;;;;4.93;1.85;;;;;;;15.79;80.11;102150.91;5031740;28;20026;-72
2022/09/01 00:06:46;;;;;;;4.57;1.70;;;;;;;15.75;79.82;102146.22;5032991;28;20492;-71
2022/09/01 00:09:16;;;;;;;5.13;1.75;;;;;;;15.65;80.60;102158.72;5031723;28;20427;-71
2022/09/01 00:11:45;;;;;;;5.07;1.98;;;;;;;15.78;80.08;102145.84;5031734;28;20026;-71
2022/09/01 00:14:11;;;;;;;6.90;1.75;;;;;;;15.76;80.21;102147.84;5033070;28;20048;-70
2022/09/01 00:16:37;;;;;;;5.32;1.70;;;;;;;15.68;80.04;102150.56;5032915;28;20053;-70
2022/09/01 00:19:03;;;;;;;1.98;1.42;;;;;;;15.85;80.07;102149.31;5032815;28;20112;-70
2022/09/01 00:21:32;;;;;;;3.90;1.58;;;;;;;15.81;80.14;102147.28;5033005;28;20068;-70
2022/09/01 00:23:59;;;;;;;3.78;1.80;;;;;;;15.57;80.81;102144.06;5032907;28;20027;-70
2022/09/01 00:26:24;;;;;;;7.72;1.60;;;;;;;15.51;81.23;102144.81;5031503;28;20112;-71
2022/09/01 00:28:50;;;;;;;5.72;2.00;;;;;;;15.52;81.09;102146.41;5033009;28;20041;-71
2022/09/01 00:31:17;;;;;;;3.35;1.88;;;;;;;15.48;81.62;102153.00;5032842;28;20035;-70
2022/09/01 00:33:43;;;;;;;4.75;1.90;;;;;;;15.41;81.32;102144.28;5032736;28;20064;-71
2022/09/01 00:36:08;;;;;;;5.55;1.85;;;;;;;15.47;81.71;102146.94;5032737;28;20025;-71
2022/09/01 00:38:34;;;;;;;4.78;1.70;;;;;;;15.56;81.15;102145.03;5031284;28;20535;-71
2022/09/01 00:40:59;;;;;;;4.82;2.00;;;;;;;15.38;82.02;102142.06;5032781;28;20025;-70
2022/09/01 00:43:50;;;;;;;8.10;2.22;;;;;;;15.36;82.64;102147.44;5032683;28;20390;-71
2022/09/01 00:46:22;;;;;;;7.22;2.00;;;;;;;15.34;82.46;102142.44;5032855;28;20036;-70
2022/09/01 00:49:06;;;;;;;5.00;2.20;;;;;;;15.45;82.00;102135.09;5032645;28;20023;-70
2022/09/01 00:51:35;;;;;;;5.07;1.85;;;;;;;15.39;81.86;102131.44;5031338;28;20030;-71
2022/09/01 00:54:02;;;;;;;4.80;1.90;;;;;;;15.28;82.50;102134.56;5035699;28;20393;-71
2022/09/01 00:56:30;;;;;;;5.75;2.28;;;;;;;15.42;81.97;102127.66;5036147;28;20026;-70
2022/09/01 00:58:56;;;;;;;4.10;1.98;;;;;;;15.27;82.46;102127.72;5034733;28;20465;-71
2022/09/01 01:01:22;;;;;;;3.78;1.80;;;;;;;15.26;82.95;102126.91;5036057;28;20056;-71
2022/09/01 01:03:48;;;;;;;5.50;2.10;;;;;;;15.24;82.65;102133.28;5036004;28;20033;-70
2022/09/01 01:06:15;;;;;;;4.68;1.90;;;;;;;15.16;82.92;102121.19;5034686;28;20021;-70
2022/09/01 01:08:56;;;;;;;3.03;1.88;;;;;;;15.11;83.18;102118.34;5034640;28;20014;-71
2022/09/01 01:11:23;;;;;;;5.03;2.03;;;;;;;15.00;84.22;102122.22;5034578;28;20033;-71
2022/09/01 01:13:55;;;;;;;5.25;2.17;;;;;;;15.06;83.71;102118.91;5034579;28;20546;-70
2022/09/01 01:16:23;;;;;;;5.25;1.90;;;;;;;15.06;84.31;102129.31;5036030;28;20090;-70
2022/09/01 01:18:49;;;;;;;6.93;2.05;;;;;;;15.01;84.26;102123.84;5034418;28;20024;-71
2022/09/01 01:24:31;;;;;;;7.43;2.00;;;;;;;14.97;83.73;102127.81;5035635;28;20044;-71
2022/09/01 01:26:58;;;;;;;5.80;1.90;;;;;;;14.95;84.87;102121.97;5035548;28;20025;-70
2022/09/01 01:29:37;;;;;;;4.68;2.05;;;;;;;15.01;83.40;102110.81;5035525;28;20484;-70
2022/09/01 01:32:11;;;;;;;5.28;1.90;;;;;;;15.08;83.33;102118.72;5034219;28;20064;-71
2022/09/01 01:34:38;;;;;;;5.22;2.08;;;;;;;15.09;83.51;102122.94;5034171;28;20476;-71
2022/09/01 01:37:03;;;;;;;5.75;2.20;;;;;;;14.82;84.22;102117.44;5035431;28;20428;-71
2022/09/01 01:39:28;;;;;;;4.45;2.03;;;;;;;14.78;85.02;102118.78;5035597;28;20029;-71
2022/09/01 01:41:56;;;;;;;5.80;2.20;;;;;;;14.87;84.56;102120.31;5035378;28;20041;-71
2022/09/01 01:44:27;;;;;;;4.40;2.10;;;;;;;14.89;83.80;102115.69;5034049;28;20021;-70
2022/09/01 01:46:53;;;;;;;3.15;2.00;;;;;;;14.97;83.57;102112.19;5035282;28;20029;-70
2022/09/01 01:49:23;;;;;;;4.43;2.00;;;;;;;14.96;83.43;102114.97;5035220;28;20075;-70
2022/09/01 01:51:52;;;;;;;6.20;2.08;;;;;;;14.90;84.02;102116.50;5033989;28;20366;-70
2022/09/01 01:54:18;;;;;;;3.75;2.08;;;;;;;14.72;84.11;102109.09;5033635;28;20051;-71
2022/09/01 01:56:43;;;;;;;5.55;2.20;;;;;;;14.76;84.50;102117.34;5035079;28;20357;-71
2022/09/01 01:59:12;;;;;;;4.10;2.20;;;;;;;14.69;84.72;102119.88;5034962;28;20029;-71
2022/09/01 02:01:38;;;;;;;8.15;2.30;;;;;;;14.73;85.11;102118.53;5033651;28;20374;-71
2022/09/01 02:04:04;;;;;;;6.20;2.10;;;;;;;14.81;83.90;102117.59;5032787;28;20028;-71
2022/09/01 02:06:32;;;;;;;8.15;2.13;;;;;;;14.80;84.39;102121.19;5034757;28;20057;-71
2022/09/01 02:09:01;;;;;;;6.75;2.03;;;;;;;14.68;84.46;102120.88;5033572;28;20052;-70
2022/09/01 02:11:27;;;;;;;8.65;2.15;;;;;;;14.59;84.94;102127.16;5034754;28;20075;-70
2022/09/01 02:13:56;;;;;;;4.95;2.15;;;;;;;14.68;85.49;102120.06;5034670;28;20420;-72
2022/09/01 02:16:22;;;;;;;4.13;2.05;;;;;;;14.73;84.63;102117.69;5033433;28;20026;-71
2022/09/01 02:18:48;;;;;;;5.93;2.30;;;;;;;14.71;84.40;102122.31;5033215;28;20527;-72
2022/09/01 02:21:18;;;;;;;7.00;2.25;;;;;;;14.73;84.40;102117.69;5034702;28;20021;-71
2022/09/01 02:23:46;;;;;;;5.60;2.35;;;;;;;14.71;84.03;102120.50;5034564;28;20044;-71
2022/09/01 02:26:12;;;;;;;4.63;2.28;;;;;;;14.73;84.48;102117.69;5034478;28;20052;-71
2022/09/01 02:28:41;;;;;;;5.22;2.35;;;;;;;14.47;85.18;102131.13;5033031;28;20021;-70
2022/09/01 02:31:08;;;;;;;9.40;2.50;;;;;;;14.46;85.36;102114.75;5034425;28;20056;-71
2022/09/01 02:33:35;;;;;;;5.70;2.25;;;;;;;14.47;85.48;102124.13;5034350;28;20041;-70
2022/09/01 02:36:04;;;;;;;6.35;2.30;;;;;;;14.43;85.37;102125.50;5034309;28;20032;-70
2022/09/01 02:38:30;;;;;;;4.65;2.63;;;;;;;14.49;85.44;102116.97;5034047;28;20034;-70
2022/09/01 02:40:57;;;;;;;3.55;2.45;;;;;;;14.34;85.85;102111.78;5034163;28;20029;-70
2022/09/01 02:43:24;;;;;;;7.05;2.50;;;;;;;14.58;84.87;102120.31;5034161;28;20044;-69
2022/09/01 02:45:56;;;;;;;6.82;2.63;;;;;;;14.44;85.34;102116.69;5034203;28;20029;-70
2022/09/01 02:48:31;;;;;;;6.32;2.75;;;;;;;14.49;84.66;102131.78;5032763;28;20017;-70
2022/09/01 02:51:00;;;;;;;5.30;2.50;;;;;;;14.52;84.92;102121.84;5032648;28;20057;-70
2022/09/01 02:53:30;;;;;;;4.18;2.53;;;;;;;14.47;84.72;102118.94;5032622;28;20029;-71
2022/09/01 02:55:58;;;;;;;6.07;2.47;;;;;;;14.56;84.48;102107.50;5032615;28;20075;-70
2022/09/01 02:58:25;;;;;;;7.15;2.40;;;;;;;14.38;84.48;102115.63;5033764;28;20431;-71
2022/09/01 03:00:52;;;;;;;5.47;2.58;;;;;;;14.31;84.95;102119.94;5033882;28;20025;-71
2022/09/01 03:03:20;;;;;;;4.38;2.35;;;;;;;14.28;85.56;102109.91;5032558;28;20076;-71
2022/09/01 03:05:46;;;;;;;7.95;2.60;;;;;;;14.31;84.69;102099.13;5032462;28;20440;-70
2022/09/01 03:08:14;;;;;;;5.18;2.42;;;;;;;14.31;84.14;102101.75;5033953;28;20021;-70
2022/09/01 03:10:42;;;;;;;6.38;2.50;;;;;;;14.19;85.57;102109.19;5033678;28;20029;-70
2022/09/01 03:13:16;;;;;;;4.50;2.58;;;;;;;14.23;85.22;102109.63;5032339;28;20031;-72
2022/09/01 03:15:43;;;;;;;3.92;2.40;;;;;;;14.30;85.10;102110.53;5033436;28;20388;-71
2022/09/01 03:18:10;;;;;;;4.45;2.35;;;;;;;14.18;84.71;102109.34;5033479;28;20060;-70
2022/09/01 03:20:38;;;;;;;4.60;2.40;;;;;;;14.10;85.42;102105.06;5033652;28;20068;-70
2022/09/01 03:23:07;;;;;;;4.10;2.47;;;;;;;13.97;85.68;102103.03;5032207;28;20124;-69
2022/09/01 03:25:34;;;;;;;5.13;2.20;;;;;;;14.07;86.19;102107.19;5032123;28;20075;-70
2022/09/01 03:28:00;;;;;;;7.88;2.70;;;;;;;13.99;85.47;102101.09;5033448;28;20032;-70
2022/09/01 03:30:27;;;;;;;6.60;2.60;;;;;;;14.19;85.09;102106.56;5032199;28;20037;-70
2022/09/01 03:32:53;;;;;;;3.85;2.35;;;;;;;14.14;84.98;102105.50;5033350;28;20427;-70
2022/09/01 03:35:18;;;;;;;5.85;2.55;;;;;;;14.04;85.14;102099.72;5033333;28;20082;-70
2022/09/01 03:37:44;;;;;;;4.07;2.30;;;;;;;14.06;85.14;102095.19;5031968;28;20061;-70
2022/09/01 03:40:11;;;;;;;4.82;2.42;;;;;;;13.93;85.28;102095.78;5033338;28;20114;-70
2022/09/01 03:42:37;;;;;;;3.40;2.30;;;;;;;13.91;86.00;102090.75;5031916;28;20461;-70
2022/09/01 03:45:08;;;;;;;4.15;2.40;;;;;;;14.01;84.84;102090.50;5033180;28;20477;-70
2022/09/01 03:47:39;;;;;;;7.40;2.38;;;;;;;14.09;84.42;102095.63;5033172;28;20025;-70
2022/09/01 03:50:19;;;;;;;4.65;2.47;;;;;;;13.83;85.11;102084.84;5033225;28;20484;-71
2022/09/01 03:52:51;;;;;;;5.65;2.22;;;;;;;13.88;85.43;102090.31;5033158;28;20026;-70
2022/09/01 03:55:22;;;;;;;4.32;2.53;;;;;;;13.96;84.63;102088.44;5032902;28;20420;-70
2022/09/01 03:57:49;;;;;;;5.28;2.20;;;;;;;13.87;84.83;102083.50;5031698;28;20028;-69
2022/09/01 04:00:19;;;;;;;5.82;2.50;;;;;;;13.94;84.18;102082.59;5031852;28;20025;-70
2022/09/01 04:02:49;;;;;;;6.80;2.60;;;;;;;13.99;84.69;102087.28;5032166;28;20059;-71
2022/09/01 04:05:23;;;;;;;4.30;2.58;;;;;;;13.95;84.28;102094.63;5031893;28;20040;-70
2022/09/01 04:07:50;;;;;;;6.88;2.72;;;;;;;13.79;85.30;102086.97;5031721;28;20021;-70
2022/09/01 04:10:17;;;;;;;5.38;2.53;;;;;;;13.90;83.90;102083.97;5032976;28;20067;-70
2022/09/01 04:12:44;;;;;;;5.25;2.30;;;;;;;13.89;84.30;102086.72;5033066;28;20474;-70
2022/09/01 04:15:10;;;;;;;4.60;2.40;;;;;;;13.99;83.78;102087.28;5033005;28;20029;-70
2022/09/01 04:20:20;;;;;;;5.43;2.50;;;;;;;13.82;84.45;102084.03;5032984;28;20111;-70
2022/09/01 04:22:47;;;;;;;5.72;2.55;;;;;;;13.83;84.42;102093.44;5031558;28;20147;-69
2022/09/01 04:25:13;;;;;;;4.32;2.40;;;;;;;13.87;84.38;102084.31;5032992;28;20029;-70
2022/09/01 04:27:39;;;;;;;6.25;2.40;;;;;;;13.76;84.23;102082.13;5034330;28;20105;-69
2022/09/01 04:30:09;;;;;;;4.78;2.33;;;;;;;13.82;84.16;102091.03;5036912;28;20080;-70
2022/09/01 04:32:36;;;;;;;3.95;2.33;;;;;;;13.76;84.27;102084.75;5037162;28;20079;-69
2022/09/01 04:35:03;;;;;;;5.75;2.50;;;;;;;13.75;84.62;102085.72;5038527;28;20025;-71
2022/09/01 04:37:29;;;;;;;5.63;2.50;;;;;;;13.88;83.51;102085.13;5036393;28;20078;-70
2022/09/01 04:39:55;;;;;;;4.95;2.53;;;;;;;13.94;83.73;102090.41;5036863;28;20120;-71
2022/09/01 04:42:22;;;;;;;4.47;2.15;;;;;;;13.97;83.25;102092.66;5036962;28;20025;-71
2022/09/01 04:44:49;;;;;;;4.10;2.20;;;;;;;13.89;83.03;102089.31;5036973;28;20032;-70
2022/09/01 04:47:18;;;;;;;4.85;2.20;;;;;;;13.83;83.78;102093.44;5037299;28;20031;-70
2022/09/01 04:49:47;;;;;;;4.20;2.30;;;;;;;13.72;84.09;102093.84;5037225;28;20017;-70
2022/09/01 04:52:12;;;;;;;4.82;2.47;;;;;;;13.79;83.10;102094.78;5037366;28;20025;-71
2022/09/01 04:54:37;;;;;;;5.20;2.55;;;;;;;13.71;83.38;102094.84;5046022;28;20382;-71
2022/09/01 04:57:05;;;;;;;3.25;2.00;;;;;;;13.85;83.20;102088.06;5049060;28;20102;-70
2022/09/01 04:59:31;;;;;;;6.60;2.45;;;;;;;13.72;83.33;102092.09;5052234;28;20018;-72
2022/09/01 05:01:58;;;;;;;5.32;2.30;;;;;;;13.70;83.23;102085.44;5052550;28;20036;-72
2022/09/01 05:04:27;;;;;;;6.70;2.30;;;;;;;13.71;83.29;102092.25;5050652;28;20027;-70
2022/09/01 05:06:58;;;;;;;4.70;2.20;;;;;;;13.84;82.79;102089.03;5048977;28;20029;-73
2022/09/01 05:09:24;;;;;;;3.25;2.28;;;;;;;13.85;81.73;102088.88;5048434;28;20052;-74
2022/09/01 05:11:49;;;;;;;7.93;2.47;;;;;;;13.90;81.21;102085.75;5050082;28;20025;-72
2022/09/01 05:14:17;;;;;;;3.65;2.22;;;;;;;13.73;81.76;102090.28;5039680;28;20396;-70
2022/09/01 05:16:44;;;;;;;5.85;2.30;;;;;;;13.72;81.44;102088.66;5038136;28;20116;-70
2022/09/01 05:19:19;;;;;;;4.80;2.22;;;;;;;14.02;80.39;102096.53;5038641;28;20417;-69
2022/09/01 05:21:47;;;;;;;5.40;2.13;;;;;;;13.89;80.41;102090.13;5041039;28;20056;-70
2022/09/01 05:24:16;;;;;;;3.58;2.20;;;;;;;13.98;80.08;102099.47;5038111;28;20026;-69
2022/09/01 05:26:42;;;;;;;3.95;2.10;;;;;;;14.13;79.85;102104.69;5037197;28;20025;-71
2022/09/01 05:29:12;;;;;;;4.30;2.25;;;;;;;13.90;79.93;102088.34;5037448;28;20025;-70
2022/09/01 05:31:39;;;;;;;4.82;2.22;;;;;;;14.12;79.29;102102.25;5037682;28;20104;-70
2022/09/01 05:34:08;;;;;;;3.55;1.95;;;;;;;14.13;78.96;102099.50;5035978;28;20029;-70
2022/09/01 05:36:35;;;;;;;8.93;2.35;;;;;;;14.13;79.06;102096.09;5036263;28;20032;-69
2022/09/01 05:39:03;;;;;;;3.95;2.22;;;;;;;14.17;78.79;102097.34;5034798;28;20046;-70
2022/09/01 05:41:29;;;;;;;6.47;2.20;;;;;;;14.09;79.10;102095.63;5035947;28;20116;-70
2022/09/01 05:43:55;;;;;;;6.72;2.35;;;;;;;14.17;78.42;102095.53;5036043;28;20056;-69
2022/09/01 05:46:23;;;;;;;5.30;2.10;;;;;;;14.34;78.00;102096.19;5035765;28;20037;-70
2022/09/01 05:48:51;;;;;;;4.50;2.30;;;;;;;14.23;77.86;102094.03;5035616;28;20179;-70
2022/09/01 05:51:18;;;;;;;5.05;2.03;;;;;;;14.44;77.49;102112.34;5035257;28;20030;-70
2022/09/01 05:53:53;;;;;;;5.57;2.20;;;;;;;14.33;77.56;102102.38;5034815;28;20029;-71
2022/09/01 05:56:19;;;;;;;4.35;2.13;;;;;;;14.49;76.88;102113.56;5033883;28;20067;-71
2022/09/01 05:58:47;;;;;;;7.82;2.30;;;;;;;14.59;75.95;102101.94;5034834;28;20025;-71
2022/09/01 06:01:21;;;;;;;4.72;2.10;;;;;;;14.38;76.32;102101.81;5034956;28;20049;-71
2022/09/01 06:03:56;;;;;;;4.70;2.10;;;;;;;14.64;75.97;102111.78;5033539;28;20036;-72
2022/09/01 06:06:48;;;;;;;7.32;2.40;;;;;;;14.59;75.68;102116.75;5033533;28;20507;-71
2022/09/01 06:09:16;;;;;;;6.68;2.67;;;;;;;14.71;75.10;102111.88;5033291;28;20076;-72
2022/09/01 06:11:45;;;;;;;3.63;2.10;;;;;;;14.58;75.48;102115.13;5033478;28;20087;-70
2022/09/01 06:14:11;;;;;;;2.83;1.98;;;;;;;14.52;75.62;102097.63;5033337;28;20025;-70
2022/09/01 06:16:37;;;;;;;3.13;2.10;;;;;;;14.68;75.64;102105.25;5033349;28;20538;-70
2022/09/01 06:19:04;;;;;;;5.00;2.20;;;;;;;14.52;76.23;102108.03;5034464;28;20029;-71
2022/09/01 06:21:30;;;;;;;7.80;2.38;;;;;;;14.59;75.64;102107.16;5033975;28;20052;-71
2022/09/01 06:23:57;;;;;;;6.15;2.10;;;;;;;14.72;75.02;102100.47;5031522;28;20029;-71
2022/09/01 06:26:29;;;;;;;4.30;2.25;;;;;;;14.69;75.63;102109.47;5033657;28;20025;-71
2022/09/01 06:28:57;;;;;;;3.35;2.10;;;;;;;14.88;74.89;102108.09;5034180;28;20135;-70
2022/09/01 06:31:32;;;;;;;4.30;2.20;;;;;;;14.85;74.88;102105.84;5031636;28;20167;-72
2022/09/01 06:34:00;;;;;;;6.32;2.53;;;;;;;15.15;74.11;102105.75;5033369;28;20026;-69
2022/09/01 06:36:25;;;;;;;3.15;2.17;;;;;;;14.91;74.15;102109.53;5034411;28;20036;-69
2022/09/01 06:38:52;;;;;;;7.43;2.42;;;;;;;15.84;71.42;102108.59;5034425;28;20025;-69
2022/09/01 06:41:19;;;;;;;10.13;2.17;;;;;;;20.85;54.67;102110.44;5033130;28;20025;-70
2022/09/01 06:43:47;;;;;;;5.88;2.08;;;;;;;23.99;45.46;102102.13;5032820;28;20555;-70
2022/09/01 06:46:12;;;;;;;6.03;2.28;;;;;;;25.14;42.50;102109.97;5031983;28;20022;-70
2022/09/01 06:48:45;;;;;;;7.78;2.38;;;;;;;25.32;41.64;102113.28;5033938;28;20569;-70
2022/09/01 06:51:15;;;;;;;3.28;1.80;;;;;;;26.34;39.63;102114.63;5033638;28;20028;-71
2022/09/01 06:53:43;;;;;;;2.85;1.65;;;;;;;26.38;38.72;102096.34;5033796;28;20044;-71
2022/09/01 06:56:12;;;;;;;5.47;2.10;;;;;;;26.73;38.16;102113.44;5033613;28;20045;-70
2022/09/01 06:58:40;;;;;;;4.78;1.90;;;;;;;26.45;38.11;102112.81;5033922;28;20156;-71
2022/09/01 07:01:14;;;;;;;3.83;1.90;;;;;;;26.41;38.21;102114.38;5033850;28;20021;-70
2022/09/01 07:03:39;;;;;;;4.68;1.85;;;;;;;28.04;35.37;102123.34;5032451;28;20079;-70
2022/09/01 07:06:06;;;;;;;4.85;1.73;;;;;;;27.99;35.08;102126.03;5032490;28;20029;-71
2022/09/01 07:08:38;;;;;;;3.63;1.50;;;;;;;28.73;33.87;102117.13;5033596;28;20021;-71
2022/09/01 07:11:06;;;;;;;3.72;1.90;;;;;;;27.85;35.25;102116.00;5016832;28;20055;-71
2022/09/01 07:13:34;;;;;;;5.40;1.90;;;;;;;26.80;37.20;102126.41;5033634;28;20029;-71
2022/09/01 07:15:59;;;;;;;9.63;1.70;;;;;;;28.53;34.87;102119.94;5032601;28;20067;-71
2022/09/01 07:18:26;;;;;;;7.85;1.98;;;;;;;29.01;32.89;102125.44;5032205;28;20029;-72
2022/09/01 07:20:52;;;;;;;7.50;1.75;;;;;;;29.49;32.47;102116.75;5033501;28;20032;-70
2022/09/01 07:23:18;;;;;;;5.55;1.88;;;;;;;29.23;32.55;102125.00;5033468;28;20029;-71
2022/09/01 07:25:48;;;;;;;6.93;1.70;;;;;;;29.11;32.90;102112.06;5033557;28;20045;-71
2022/09/01 07:28:15;;;;;;;4.40;1.70;;;;;;;29.27;32.20;102114.59;5033010;28;20033;-71
2022/09/01 07:30:47;;;;;;;3.45;1.70;;;;;;;30.28;30.81;102119.84;5031176;28;20473;-72
2022/09/01 07:33:14;;;;;;;14.60;1.90;;;;;;;29.76;31.14;102122.34;5031467;28;20029;-71
2022/09/01 07:35:40;;;;;;;7.82;1.67;;;;;;;29.18;31.74;102119.75;5031445;28;20017;-71
2022/09/01 07:38:08;;;;;;;9.82;1.77;;;;;;;29.07;31.33;102123.56;5031476;28;20215;-70
2022/09/01 07:40:37;;;;;;;9.50;1.80;;;;;;;29.48;29.99;102123.16;5031772;28;20391;-72
2022/09/01 07:43:07;;;;;;;5.90;2.00;;;;;;;27.26;33.49;102118.50;5031842;28;20021;-71
2022/09/01 07:45:35;;;;;;;5.90;2.08;;;;;;;27.34;33.35;102117.97;5033330;28;20021;-71
2022/09/01 07:48:05;;;;;;;6.68;2.00;;;;;;;27.47;33.64;102130.66;5032002;28;20017;-70
2022/09/01 07:50:32;;;;;;;4.88;1.80;;;;;;;28.15;32.85;102121.47;5032430;28;20129;-70
2022/09/01 07:52:59;;;;;;;6.82;1.73;;;;;;;29.34;31.27;102117.72;5033023;28;20021;-70
2022/09/01 07:55:26;;;;;;;6.60;1.80;;;;;;;29.43;31.11;102118.69;5032831;28;20504;-70
2022/09/01 07:57:52;;;;;;;7.90;1.77;;;;;;;28.44;31.77;102122.38;5032970;28;20048;-70
2022/09/01 08:00:17;;;;;;;5.38;1.73;;;;;;;29.28;31.21;102129.50;5033208;28;20476;-72
2022/09/01 08:02:43;;;;;;;5.90;1.63;;;;;;;29.67;30.34;102124.84;5034817;28;20093;-71
2022/09/01 08:05:12;;;;;;;6.95;2.03;;;;;;;27.93;32.22;102119.94;5037428;28;20029;-72
2022/09/01 08:07:37;;;;;;;5.43;1.60;;;;;;;28.45;31.69;102121.31;5036143;28;20021;-70
2022/09/01 08:10:05;;;;;;;7.85;1.90;;;;;;;28.66;31.65;102116.66;5035694;28;20231;-71
2022/09/01 08:12:30;;;;;;;6.28;1.70;;;;;;;29.44;31.38;102118.41;5036950;28;20032;-72
2022/09/01 08:14:55;;;;;;;3.42;1.80;;;;;;;29.53;31.17;102112.47;5037032;28;20393;-71
2022/09/01 08:17:21;;;;;;;4.55;1.80;;;;;;;29.88;30.05;102111.28;5036906;28;20397;-70
2022/09/01 08:19:46;;;;;;;3.65;1.67;;;;;;;30.43;29.77;102118.84;5035796;28;20417;-70
2022/09/01 08:22:13;;;;;;;6.82;1.40;;;;;;;30.73;29.23;102115.72;5036385;28;20500;-71
2022/09/01 08:24:39;;;;;;;3.22;1.40;;;;;;;30.28;29.32;102125.97;5034709;28;20032;-70
2022/09/01 08:27:04;;;;;;;5.53;1.70;;;;;;;29.36;31.55;102113.69;5036167;28;20029;-70
2022/09/01 08:29:29;;;;;;;7.22;1.50;;;;;;;30.63;29.91;102120.41;5036860;28;20013;-70
2022/09/01 08:31:57;;;;;;;4.97;1.65;;;;;;;29.68;29.74;102118.44;5035255;28;20031;-69
2022/09/01 08:34:24;;;;;;;3.15;1.58;;;;;;;29.89;30.42;102124.34;5035116;28;20076;-70
2022/09/01 08:36:49;;;;;;;3.80;1.60;;;;;;;30.44;29.31;102120.41;5035215;28;20029;-71
2022/09/01 08:39:14;;;;;;;4.95;1.35;;;;;;;30.21;29.66;102122.03;5036367;28;20033;-70
2022/09/01 08:41:44;;;;;;;3.23;1.43;;;;;;;28.42;31.19;102121.06;5035066;28;20083;-72
2022/09/01 08:44:24;;;;;;;6.63;1.27;;;;;;;27.24;31.50;102116.09;5036513;28;20276;-71
2022/09/01 08:46:55;;;;;;;6.60;1.33;;;;;;;26.04;34.01;102117.97;5035064;28;20469;-70
2022/09/01 08:49:23;;;;;;;4.55;1.30;;;;;;;25.01;35.52;102114.88;5035012;28;20052;-70
2022/09/01 08:52:09;;;;;;;7.65;1.52;;;;;;;25.42;35.72;102121.31;5036214;28;20030;-70
2022/09/01 08:55:04;;;;;;;3.70;1.38;;;;;;;25.48;35.55;102115.00;5036012;28;20103;-69
2022/09/01 08:57:37;;;;;;;4.63;1.30;;;;;;;24.97;36.02;102114.56;5030855;28;20045;-69
2022/09/01 09:00:12;;;;;;;7.10;1.52;;;;;;;25.84;34.62;102105.44;5034678;28;20025;-69
2022/09/01 09:03:00;;;;;;;3.20;0.95;;;;;;;25.97;34.77;102106.81;5034772;28;20033;-70
2022/09/01 09:05:43;;;;;;;3.92;1.75;;;;;;;24.92;35.29;102101.31;5036017;28;20453;-69
2022/09/01 09:08:11;;;;;;;7.13;1.30;;;;;;;24.94;35.27;102104.50;5035876;28;20479;-70
2022/09/01 09:10:46;;;;;;;3.22;1.10;;;;;;;24.74;35.25;102100.63;5035951;28;20400;-71
2022/09/01 09:13:38;;;;;;;4.65;1.52;;;;;;;25.66;35.16;102105.81;5035572;28;20087;-71
2022/09/01 09:16:22;;;;;;;5.63;1.37;;;;;;;26.44;33.02;102103.28;5034869;28;20021;-70
2022/09/01 09:18:55;;;;;;;2.75;1.25;;;;;;;26.33;32.07;102101.66;5035565;28;20034;-69
2022/09/01 09:21:27;;;;;;;3.10;1.20;;;;;;;25.42;33.51;102086.91;5035856;28;20029;-68
2022/09/01 09:24:06;;;;;;;3.95;1.20;;;;;;;25.42;32.84;102103.56;5035739;28;20029;-68
2022/09/01 09:26:31;;;;;;;2.83;1.23;;;;;;;24.48;35.00;102102.19;5035055;28;20100;-70
2022/09/01 09:28:57;;;;;;;4.20;1.10;;;;;;;24.36;35.58;102098.88;5035437;28;20105;-70
2022/09/01 09:31:33;;;;;;;3.60;1.20;;;;;;;25.37;34.60;102092.16;5035517;28;20029;-69
2022/09/01 09:33:59;;;;;;;4.10;1.08;;;;;;;26.41;32.67;102085.22;5034319;28;20472;-70
2022/09/01 09:36:35;;;;;;;5.93;1.20;;;;;;;25.58;33.80;102079.88;5033765;28;20030;-70
2022/09/01 09:39:06;;;;;;;2.78;1.20;;;;;;;25.44;33.17;102076.88;5034991;28;20034;-70
2022/09/01 09:41:32;;;;;;;1.75;1.10;;;;;;;25.12;33.87;102077.69;5033810;28;20507;-68
2022/09/01 09:44:05;;;;;;;2.22;1.13;;;;;;;25.95;33.00;102073.69;5033982;28;20014;-68
2022/09/01 09:46:31;;;;;;;3.20;1.30;;;;;;;27.14;32.07;102066.47;5034997;28;20517;-68
2022/09/01 09:49:19;;;;;;;2.20;1.20;;;;;;;27.85;30.58;102060.22;5033515;28;20057;-69
2022/09/01 09:51:48;;;;;;;2.10;1.10;;;;;;;27.35;30.44;102064.59;5034008;28;20284;-70
2022/09/01 09:54:18;;;;;;;2.95;1.25;;;;;;;26.78;30.77;102061.16;5033675;28;20492;-70
2022/09/01 09:56:44;;;;;;;4.97;1.10;;;;;;;25.99;31.36;102064.97;5035063;28;20030;-70
2022/09/01 09:59:32;;;;;;;2.40;1.20;;;;;;;26.99;30.57;102055.88;5034881;28;20029;-70
2022/09/01 10:01:59;;;;;;;1.67;1.08;;;;;;;27.30;28.29;102064.59;5034706;28;20032;-70
2022/09/01 10:04:34;;;;;;;5.38;1.00;;;;;;;25.85;30.41;102062.00;5035045;28;20025;-70
2022/09/01 10:07:00;;;;;;;2.58;1.02;;;;;;;25.13;31.25;102066.03;5035014;28;20052;-70
2022/09/01 10:09:25;;;;;;;3.05;0.95;;;;;;;24.58;32.48;102051.31;5033478;28;20061;-69
2022/09/01 10:11:54;;;;;;;7.03;1.27;;;;;;;25.51;31.21;102039.59;5033396;28;20455;-70
2022/09/01 10:14:32;;;;;;;2.90;1.30;;;;;;;25.87;30.97;102048.53;5033527;28;20283;-70
2022/09/01 10:17:14;;;;;;;1.85;0.88;;;;;;;25.75;31.11;102038.13;5034757;28;20048;-70
2022/09/01 10:19:48;;;;;;;3.55;1.20;;;;;;;27.07;31.00;102047.34;5033133;28;20041;-70
2022/09/01 10:22:14;;;;;;;6.82;1.08;;;;;;;26.96;30.29;102048.47;5034884;28;20384;-70
2022/09/01 10:24:39;;;;;;;4.45;1.00;;;;;;;27.08;30.03;102038.34;5032887;28;20120;-70
2022/09/01 10:27:15;;;;;;;3.47;1.23;;;;;;;26.95;30.33;102038.91;5034675;28;20074;-70
2022/09/01 10:30:10;;;;;;;3.70;1.10;;;;;;;26.73;30.68;102045.28;5034368;28;20017;-70
2022/09/01 10:32:52;;;;;;;2.72;1.08;;;;;;;26.38;30.11;102043.34;5027582;28;20033;-69
2022/09/01 10:35:26;;;;;;;4.97;1.10;;;;;;;26.57;29.91;102034.94;5032906;28;20033;-70
2022/09/01 10:37:52;;;;;;;4.07;1.13;;;;;;;26.15;30.73;102039.31;5033807;28;20432;-67
2022/09/01 10:40:27;;;;;;;1.75;0.90;;;;;;;26.96;30.13;102041.28;5032731;28;20425;-69
2022/09/01 10:42:55;;;;;;;2.58;1.02;;;;;;;27.90;28.75;102033.63;5034132;28;20422;-69
2022/09/01 10:45:33;;;;;;;3.35;1.13;;;;;;;26.06;30.54;102033.72;5034214;28;20021;-69
2022/09/01 10:48:19;;;;;;;3.30;1.05;;;;;;;27.76;28.67;102035.25;5034087;28;20029;-70
2022/09/01 10:50:48;;;;;;;3.53;1.33;;;;;;;28.47;28.48;102036.75;5023448;28;20033;-69
2022/09/01 10:53:32;;;;;;;4.57;1.10;;;;;;;28.16;28.07;102035.34;5032800;28;20075;-71
2022/09/01 10:56:23;;;;;;;1.60;0.90;;;;;;;27.23;29.15;102041.00;5033790;28;20045;-69
2022/09/01 10:58:58;;;;;;;3.85;1.05;;;;;;;26.59;29.72;102035.47;5032634;28;20083;-70
2022/09/01 11:01:38;;;;;;;4.18;0.90;;;;;;;26.74;29.90;102030.16;5033847;28;20112;-70
2022/09/01 11:04:04;;;;;;;3.20;1.00;;;;;;;28.23;27.94;102031.31;5034091;28;20034;-69
2022/09/01 11:06:55;;;;;;;3.70;1.20;;;;;;;28.83;28.11;102027.69;5033892;28;20028;-71
2022/09/01 11:09:32;;;;;;;4.32;1.13;;;;;;;28.78;27.57;102025.88;5034182;28;20057;-71
2022/09/01 11:12:03;;;;;;;2.55;1.23;;;;;;;27.46;28.56;102020.25;5034741;28;20385;-71
2022/09/01 11:14:34;;;;;;;12.55;1.80;;;;;;;27.66;28.55;102000.78;5034307;28;20030;-72
2022/09/01 11:17:21;;;;;;;3.28;0.98;;;;;;;27.68;28.44;102014.59;5035876;28;20159;-70
2022/09/01 11:19:56;;;;;;;2.15;1.00;;;;;;;28.23;27.43;102025.22;5037154;28;20585;-71
2022/09/01 11:22:42;;;;;;;4.32;1.00;;;;;;;26.69;29.55;102033.59;5034869;28;20040;-72
2022/09/01 11:25:13;;;;;;;3.00;0.95;;;;;;;28.12;28.29;102021.81;5031394;28;20029;-71
2022/09/01 11:27:47;;;;;;;2.78;1.10;;;;;;;28.43;27.10;102022.44;5035488;28;20028;-71
2022/09/01 11:30:17;;;;;;;2.20;1.00;;;;;;;27.94;28.03;102022.44;5034851;28;20455;-71
2022/09/01 11:32:46;;;;;;;4.43;1.10;;;;;;;27.96;27.79;102010.47;5033228;28;20037;-71
2022/09/01 11:35:17;;;;;;;2.20;1.00;;;;;;;27.87;27.88;102007.59;5032955;28;20117;-70
2022/09/01 11:37:46;;;;;;;4.38;1.42;;;;;;;29.17;27.02;102011.66;5032678;28;20431;-70
2022/09/01 11:40:20;;;;;;;1.83;1.20;;;;;;;27.82;27.62;102005.00;5033607;28;20075;-70
2022/09/01 11:42:47;;;;;;;5.07;1.08;;;;;;;27.00;28.79;102009.72;5032067;28;20473;-71